Time;durP1;ratioP1;P1;durP2;ratioP2;P2;SDS_P1;SDS_P2;PMS_P1;PMS_P2;Temp;Humidity;BMP_temperature;BMP_pressure;BME280_temperature;BME280_humidity;BME280_pressure;Samples;Min_cycle;Max_cycle;Signal;HPM_P1;HPM_P2
2021/12/05 00:16:55;;;;;;;8.82;1.98;;;4.60;99.90;;;;;;5111988;28;20392;-54
2021/12/05 00:22:48;;;;;;;7.40;1.55;;;5.00;99.90;;;;;;5108110;28;20397;-55
2021/12/05 00:25:25;;;;;;;5.80;1.55;;;5.00;99.90;;;;;;5108177;28;20423;-55
2021/12/05 00:28:09;;;;;;;8.93;1.58;;;5.00;99.90;;;;;;5106141;28;20436;-56
2021/12/05 00:33:56;;;;;;;8.90;1.60;;;5.00;99.90;;;;;;5097458;28;20425;-55
2021/12/05 00:37:11;;;;;;;6.82;1.60;;;5.10;99.90;;;;;;5101620;28;20411;-54
2021/12/05 00:57:37;;;;;;;4.80;1.20;;;5.20;99.90;;;;;;5109578;27;20387;-55
2021/12/05 01:00:30;;;;;;;5.30;1.20;;;5.10;99.90;;;;;;5109047;28;20377;-55
2021/12/05 01:14:10;;;;;;;8.02;1.60;;;5.00;99.90;;;;;;5103264;28;20793;-56
2021/12/05 01:16:26;;;;;;;8.90;1.80;;;5.00;99.90;;;;;;5106647;28;20753;-55
2021/12/05 01:18:53;;;;;;;6.30;1.33;;;5.00;99.90;;;;;;5109737;28;20376;-55
2021/12/05 01:21:21;;;;;;;7.13;1.65;;;5.40;99.90;;;;;;5110102;28;20738;-55
2021/12/05 01:26:36;;;;;;;9.88;1.90;;;5.00;99.90;;;;;;5110842;28;20477;-55
2021/12/05 01:34:16;;;;;;;6.70;1.20;;;5.00;99.90;;;;;;5109606;28;20540;-55
2021/12/05 01:50:17;;;;;;;7.85;1.90;;;5.10;99.90;;;;;;5109602;28;20402;-55
2021/12/05 01:55:38;;;;;;;8.55;2.05;;;5.00;99.90;;;;;;5102516;28;20813;-55
2021/12/05 02:01:09;;;;;;;4.72;1.33;;;5.00;99.90;;;;;;5089966;28;20855;-53
2021/12/05 02:33:30;;;;;;;6.55;1.20;;;4.60;99.90;;;;;;5089357;28;20520;-55
2021/12/05 02:36:22;;;;;;;6.97;1.40;;;5.40;99.90;;;;;;5088880;28;20382;-54
2021/12/05 02:41:28;;;;;;;8.23;1.50;;;4.70;99.90;;;;;;5089457;28;20404;-54
2021/12/05 02:44:05;;;;;;;6.22;1.30;;;4.60;99.90;;;;;;5088873;28;20393;-54
2021/12/05 02:46:31;;;;;;;6.63;1.30;;;4.70;99.90;;;;;;5089480;28;20791;-54
2021/12/05 02:49:02;;;;;;;7.00;1.88;;;5.80;99.90;;;;;;5088331;28;20508;-54
2021/12/05 02:51:29;;;;;;;6.10;1.30;;;4.70;99.90;;;;;;5089294;28;20473;-53
2021/12/05 02:56:31;;;;;;;6.47;1.52;;;4.70;99.90;;;;;;5089264;28;20386;-53
2021/12/05 02:59:05;;;;;;;6.00;1.40;;;4.80;99.90;;;;;;5088175;28;20961;-54
2021/12/05 03:01:44;;;;;;;7.65;1.50;;;4.80;99.90;;;;;;5089070;28;20402;-54
2021/12/05 03:04:10;;;;;;;5.43;1.40;;;4.70;99.90;;;;;;5089472;28;20474;-55
2021/12/05 03:06:38;;;;;;;7.13;1.50;;;4.70;99.90;;;;;;5089041;28;20410;-53
2021/12/05 03:09:13;;;;;;;7.53;1.77;;;4.80;99.90;;;;;;5088429;28;20370;-54
2021/12/05 03:11:39;;;;;;;8.15;1.52;;;4.80;99.90;;;;;;5089045;28;20378;-54
2021/12/05 03:14:06;;;;;;;6.13;1.50;;;4.80;99.90;;;;;;5106519;28;21272;-55
2021/12/05 03:16:34;;;;;;;6.10;1.80;;;4.90;99.90;;;;;;5108395;28;20741;-56
2021/12/05 03:18:59;;;;;;;5.80;1.40;;;4.90;99.90;;;;;;5108544;28;20373;-54
2021/12/05 03:21:26;;;;;;;5.97;1.40;;;5.00;99.90;;;;;;5111809;28;20387;-54
2021/12/05 03:23:53;;;;;;;4.93;1.35;;;5.00;99.90;;;;;;5112277;28;20373;-53
2021/12/05 03:26:26;;;;;;;6.78;1.50;;;5.00;99.90;;;;;;5113005;28;20517;-53
2021/12/05 03:28:54;;;;;;;5.20;1.35;;;4.90;99.90;;;;;;5112161;28;20455;-57
2021/12/05 03:31:21;;;;;;;6.40;1.40;;;4.80;99.90;;;;;;5111823;28;20399;-54
2021/12/05 03:33:47;;;;;;;7.70;1.42;;;4.80;99.90;;;;;;5111834;28;20558;-59
2021/12/05 03:36:13;;;;;;;6.60;1.40;;;4.80;99.90;;;;;;5112429;28;20463;-54
2021/12/05 03:38:41;;;;;;;10.17;1.50;;;4.70;99.90;;;;;;5112678;28;20372;-54
2021/12/05 03:41:07;;;;;;;6.63;1.13;;;4.60;99.90;;;;;;5112176;28;20373;-53
2021/12/05 03:43:33;;;;;;;5.70;1.30;;;4.60;99.90;;;;;;5112324;28;20427;-54
2021/12/05 03:46:00;;;;;;;6.03;1.80;;;4.60;99.90;;;;;;5110581;28;20825;-56
2021/12/05 03:48:29;;;;;;;6.72;1.30;;;4.60;99.90;;;;;;5112032;28;20467;-54
2021/12/05 03:50:56;;;;;;;5.40;1.20;;;4.70;99.90;;;;;;5111801;28;20458;-54
2021/12/05 03:53:22;;;;;;;5.70;1.33;;;4.70;99.90;;;;;;5112727;28;20420;-54
2021/12/05 03:55:53;;;;;;;6.85;1.30;;;5.10;99.90;;;;;;5111401;28;20388;-54
2021/12/05 03:58:19;;;;;;;6.35;2.00;;;4.70;99.90;;;;;;5111974;28;20395;-54
2021/12/05 04:00:49;;;;;;;6.07;1.70;;;4.50;99.90;;;;;;5110702;28;20441;-59
2021/12/05 04:03:17;;;;;;;5.68;1.33;;;4.50;99.90;;;;;;5112557;28;20473;-53
2021/12/05 04:05:43;;;;;;;6.90;1.40;;;4.50;99.90;;;;;;5112385;28;20858;-58
2021/12/05 04:08:12;;;;;;;7.75;1.40;;;4.60;99.90;;;;;;5112156;28;20441;-54
2021/12/05 04:10:44;;;;;;;7.97;1.40;;;4.70;99.90;;;;;;5112857;28;20415;-54
2021/12/05 04:13:11;;;;;;;7.43;1.55;;;4.60;99.90;;;;;;5106057;28;20502;-54
2021/12/05 04:15:37;;;;;;;6.15;1.58;;;4.60;99.90;;;;;;5102866;28;20374;-53
2021/12/05 04:18:04;;;;;;;5.50;1.40;;;4.30;99.90;;;;;;5103711;28;21251;-53
2021/12/05 04:20:30;;;;;;;5.93;1.60;;;4.20;99.90;;;;;;5111182;28;20383;-53
2021/12/05 04:22:57;;;;;;;5.90;1.60;;;4.20;99.90;;;;;;5107279;28;20472;-53
2021/12/05 04:25:24;;;;;;;6.10;1.67;;;4.10;99.90;;;;;;5095077;28;20489;-54
2021/12/05 04:27:53;;;;;;;6.80;1.90;;;4.00;99.90;;;;;;5098014;28;20410;-54
2021/12/05 04:30:21;;;;;;;7.38;1.90;;;3.90;99.90;;;;;;5111871;28;20381;-56
2021/12/05 04:32:47;;;;;;;7.40;1.95;;;3.80;99.90;;;;;;5110062;28;20397;-60
2021/12/05 04:35:14;;;;;;;7.25;1.70;;;3.80;99.90;;;;;;5111465;28;20437;-54
2021/12/05 04:37:39;;;;;;;6.10;2.00;;;3.80;99.90;;;;;;5111459;28;20380;-54
2021/12/05 04:40:07;;;;;;;7.50;1.50;;;3.80;99.90;;;;;;5111199;27;20510;-54
2021/12/05 04:42:33;;;;;;;6.65;1.67;;;3.90;99.90;;;;;;5110094;28;20839;-54
2021/12/05 04:45:13;;;;;;;5.32;1.60;;;3.90;99.90;;;;;;5110911;28;20466;-54
2021/12/05 04:47:39;;;;;;;5.18;1.15;;;3.90;99.90;;;;;;5111602;28;20380;-54
2021/12/05 04:50:05;;;;;;;5.55;1.20;;;3.80;99.90;;;;;;5111023;28;20388;-54
2021/12/05 04:52:31;;;;;;;6.27;1.40;;;3.90;99.90;;;;;;5111393;28;20392;-54
2021/12/05 04:54:57;;;;;;;5.10;1.33;;;3.90;99.90;;;;;;5110661;28;20861;-55
2021/12/05 04:57:23;;;;;;;5.57;1.20;;;3.90;99.90;;;;;;5111848;28;20388;-54
2021/12/05 04:59:50;;;;;;;5.90;1.60;;;3.90;99.90;;;;;;5110666;28;20372;-59
2021/12/05 05:02:17;;;;;;;6.25;1.70;;;4.10;99.90;;;;;;5111118;28;20464;-54
2021/12/05 05:04:46;;;;;;;5.45;1.63;;;4.30;99.90;;;;;;5110104;28;20396;-54
2021/12/05 05:07:26;;;;;;;5.68;1.60;;;3.60;99.90;;;;;;5109679;28;20754;-54
2021/12/05 05:10:01;;;;;;;7.70;1.50;;;3.50;99.90;;;;;;5110592;28;20372;-54
2021/12/05 05:12:27;;;;;;;7.10;1.60;;;3.50;99.90;;;;;;5110716;28;20415;-54
2021/12/05 05:14:54;;;;;;;6.47;1.60;;;3.50;99.90;;;;;;5110418;28;20745;-54
2021/12/05 05:17:20;;;;;;;6.50;1.60;;;3.40;99.90;;;;;;5110625;28;20734;-55
2021/12/05 05:19:53;;;;;;;7.00;1.70;;;3.40;99.90;;;;;;5110653;28;20379;-59
2021/12/05 05:22:35;;;;;;;5.70;1.70;;;3.40;99.90;;;;;;5111230;28;20372;-54
2021/12/05 05:25:57;;;;;;;5.57;1.45;;;3.40;99.90;;;;;;5110280;28;20846;-55
2021/12/05 05:30:45;;;;;;;5.57;1.60;;;3.30;99.90;;;;;;5100328;28;20722;-54
2021/12/05 05:49:17;;;;;;;4.18;1.20;;;3.40;99.90;;;;;;5089131;28;20374;-54
2021/12/05 05:51:43;;;;;;;5.75;1.40;;;3.50;99.90;;;;;;5088897;28;20854;-54
2021/12/05 05:54:09;;;;;;;5.03;1.33;;;3.60;99.90;;;;;;5090432;28;20413;-54
2021/12/05 05:56:36;;;;;;;6.07;1.23;;;3.60;99.90;;;;;;5102412;28;20382;-54
2021/12/05 05:59:17;;;;;;;5.75;1.25;;;4.30;99.90;;;;;;5092020;28;20378;-54
2021/12/05 06:03:18;;;;;;;5.57;1.30;;;4.70;99.90;;;;;;5089871;28;20382;-54
2021/12/05 06:04:29;;;;;;;5.55;1.42;;;5.10;99.90;;;;;;5100346;28;20419;-54
2021/12/05 06:06:55;;;;;;;5.75;1.60;;;3.50;99.90;;;;;;5090224;28;20411;-54
2021/12/05 06:09:20;;;;;;;5.50;1.40;;;3.50;99.90;;;;;;5093749;28;20425;-54
2021/12/05 06:11:46;;;;;;;5.60;1.40;;;3.40;99.90;;;;;;5109547;28;20392;-58
2021/12/05 06:14:12;;;;;;;4.70;1.30;;;5.10;99.90;;;;;;5109588;28;20506;-54
2021/12/05 06:16:37;;;;;;;5.20;1.50;;;3.50;99.90;;;;;;5110130;28;20376;-53
2021/12/05 06:19:03;;;;;;;5.40;1.35;;;3.50;99.90;;;;;;5109111;28;20384;-54
2021/12/05 06:21:29;;;;;;;6.30;1.73;;;4.60;99.90;;;;;;5110293;28;20372;-54
2021/12/05 06:23:54;;;;;;;6.20;2.00;;;5.30;99.90;;;;;;5108932;28;20381;-54
2021/12/05 06:26:22;;;;;;;5.88;1.42;;;3.60;99.90;;;;;;5109711;28;20400;-54
2021/12/05 06:29:39;;;;;;;4.13;1.35;;;3.60;99.90;;;;;;5108581;28;20384;-59
2021/12/05 06:47:36;;;;;;;4.40;1.10;;;3.70;99.90;;;;;;5093059;28;20416;-54
2021/12/05 06:50:03;;;;;;;6.80;1.20;;;3.10;99.90;;;;;;5100489;28;20391;-57
2021/12/05 06:52:29;;;;;;;4.88;1.23;;;3.10;99.90;;;;;;5096355;28;20385;-54
2021/12/05 06:54:54;;;;;;;4.25;1.30;;;3.60;99.90;;;;;;5089494;28;20666;-53
2021/12/05 06:57:20;;;;;;;5.30;1.27;;;3.10;99.90;;;;;;5098386;28;20479;-56
2021/12/05 06:59:48;;;;;;;5.57;1.33;;;3.90;99.90;;;;;;5119382;27;20886;-54
2021/12/05 07:02:16;;;;;;;7.15;1.30;;;3.00;99.90;;;;;;5092018;28;20386;-54
2021/12/05 07:07:36;;;;;;;8.70;1.60;;;3.20;99.90;;;;;;5090803;27;20404;-54
2021/12/05 07:10:04;;;;;;;4.70;1.30;;;3.10;99.90;;;;;;5105077;27;20433;-56
2021/12/05 07:15:12;;;;;;;5.28;1.60;;;2.90;99.90;;;;;;5096339;28;20441;-54
2021/12/05 07:25:14;;;;;;;7.10;1.50;;;3.10;99.90;;;;;;5117668;27;20383;-54
2021/12/05 07:41:44;;;;;;;6.32;1.48;;;3.20;99.90;;;;;;5101556;27;20490;-56
2021/12/05 07:44:08;;;;;;;4.15;1.40;;;3.20;99.90;;;;;;5098476;27;20413;-55
2021/12/05 07:46:34;;;;;;;6.60;1.60;;;3.20;99.90;;;;;;5093103;27;20405;-56
2021/12/05 07:49:00;;;;;;;4.32;1.27;;;3.20;99.90;;;;;;5093744;27;20730;-54
2021/12/05 07:51:28;;;;;;;5.60;1.23;;;4.50;99.90;;;;;;5095205;27;20371;-55
2021/12/05 07:54:30;;;;;;;4.60;1.37;;;3.30;99.90;;;;;;5095066;27;20475;-56
2021/12/05 07:57:12;;;;;;;8.05;1.33;;;3.50;99.90;;;;;;5099579;27;20420;-55
2021/12/05 07:59:54;;;;;;;4.32;1.17;;;2.40;99.90;;;;;;5094235;27;20388;-55
2021/12/05 08:16:05;;;;;;;5.88;1.10;;;4.50;99.90;;;;;;5101786;28;20440;-56
2021/12/05 08:18:31;;;;;;;4.95;1.10;;;4.00;99.90;;;;;;5098184;28;20402;-55
2021/12/05 08:20:58;;;;;;;4.70;1.05;;;4.10;99.90;;;;;;5116174;27;20960;-55
2021/12/05 08:23:23;;;;;;;5.75;1.20;;;4.20;99.90;;;;;;5097323;28;20485;-57
2021/12/05 08:26:07;;;;;;;6.90;1.50;;;4.30;99.90;;;;;;5130916;27;20540;-58
2021/12/05 08:29:04;;;;;;;7.45;1.50;;;4.40;99.90;;;;;;5092771;27;20404;-55
2021/12/05 10:09:39;;;;;;;4.40;1.00;;;7.80;99.90;;;;;;5100087;28;20430;-55
2021/12/05 10:36:22;;;;;;;5.05;1.23;;;7.90;99.90;;;;;;5111922;28;20445;-52
2021/12/05 10:38:52;;;;;;;5.47;1.65;;;7.60;99.90;;;;;;5110190;28;20460;-54
2021/12/05 10:43:54;;;;;;;5.00;1.00;;;7.90;99.90;;;;;;5106179;28;20407;-56
2021/12/05 10:46:22;;;;;;;6.93;2.22;;;8.20;99.90;;;;;;5110065;27;20861;-54
2021/12/05 10:49:02;;;;;;;5.00;1.00;;;8.40;99.90;;;;;;5110449;28;20703;-54
2021/12/05 10:51:32;;;;;;;7.23;1.43;;;8.40;99.90;;;;;;5103885;28;20392;-51
2021/12/05 10:54:02;;;;;;;6.10;2.50;;;8.60;99.90;;;;;;5105069;28;20422;-56
2021/12/05 10:56:44;;;;;;;6.75;2.70;;;8.40;99.90;;;;;;5111564;28;20414;-54
2021/12/05 10:59:13;;;;;;;33.57;18.87;;;8.20;99.90;;;;;;5111490;28;20370;-54
2021/12/05 11:01:48;;;;;;;108.07;41.40;;;8.20;99.90;;;;;;5106670;28;20428;-56
2021/12/05 11:04:21;;;;;;;18.50;8.93;;;8.50;99.90;;;;;;5108255;27;20456;-56
2021/12/05 11:06:51;;;;;;;8.07;1.60;;;8.80;99.90;;;;;;5100822;27;20456;-55
2021/12/05 11:09:21;;;;;;;5.85;1.85;;;9.00;99.90;;;;;;5103611;27;20670;-56
2021/12/05 11:11:53;;;;;;;7.40;1.30;;;8.60;99.90;;;;;;5101814;27;20972;-55
2021/12/05 11:14:28;;;;;;;5.60;1.20;;;8.60;99.90;;;;;;5103739;27;20878;-54
2021/12/05 11:17:17;;;;;;;6.30;1.40;;;8.60;99.90;;;;;;5103930;27;20413;-55
2021/12/05 11:19:44;;;;;;;8.65;2.83;;;8.40;99.90;;;;;;5100758;27;20883;-55
2021/12/05 11:22:15;;;;;;;6.15;1.50;;;8.20;99.90;;;;;;5104462;27;20392;-54
2021/12/05 11:24:43;;;;;;;4.50;1.00;;;7.90;99.90;;;;;;5099612;28;20405;-56
2021/12/05 11:27:11;;;;;;;4.57;1.10;;;7.70;99.90;;;;;;5103229;27;20422;-52
2021/12/05 11:29:49;;;;;;;4.93;1.20;;;7.80;99.90;;;;;;5096582;27;20408;-54
2021/12/05 11:32:25;;;;;;;6.10;1.85;;;8.10;99.90;;;;;;5092956;27;20456;-53
2021/12/05 11:34:51;;;;;;;6.00;1.30;;;7.90;99.90;;;;;;5093235;27;20903;-52
2021/12/05 11:37:17;;;;;;;4.00;0.90;;;8.20;99.90;;;;;;5093936;27;21066;-51
2021/12/05 11:39:43;;;;;;;4.70;1.10;;;8.30;99.90;;;;;;5102690;27;20385;-55
2021/12/05 11:42:20;;;;;;;4.70;1.10;;;8.70;99.90;;;;;;5097053;27;20879;-55
2021/12/05 11:44:48;;;;;;;5.27;1.00;;;8.70;99.90;;;;;;5105376;27;20429;-54
2021/12/05 11:47:18;;;;;;;4.78;0.98;;;8.80;99.90;;;;;;5098536;27;20575;-57
2021/12/05 11:49:44;;;;;;;4.30;0.80;;;8.80;99.90;;;;;;5097730;27;20425;-55
2021/12/05 11:52:11;;;;;;;4.57;1.20;;;8.70;99.90;;;;;;5092754;27;20394;-55
2021/12/05 11:54:45;;;;;;;4.80;1.00;;;8.50;99.90;;;;;;5092594;28;20409;-52
2021/12/05 11:57:17;;;;;;;5.60;0.97;;;8.70;99.90;;;;;;5124020;27;20410;-55
2021/12/05 12:00:02;;;;;;;7.90;3.15;;;8.90;99.90;;;;;;5091207;27;20402;-55
2021/12/05 12:02:33;;;;;;;5.20;1.10;;;8.70;99.90;;;;;;5091113;27;20398;-55
2021/12/05 12:05:06;;;;;;;4.70;1.02;;;8.80;99.90;;;;;;5094852;28;20873;-59
2021/12/05 12:07:51;;;;;;;5.00;0.70;;;8.90;99.90;;;;;;5097247;27;20438;-55
2021/12/05 12:10:31;;;;;;;45.40;21.13;;;9.00;99.90;;;;;;5092621;28;20439;-55
2021/12/05 12:13:09;;;;;;;9.75;3.88;;;8.60;99.90;;;;;;5095586;27;20429;-56
2021/12/05 12:15:37;;;;;;;5.30;2.23;;;8.50;99.90;;;;;;5105168;27;20752;-55
2021/12/05 12:18:12;;;;;;;9.30;2.80;;;8.30;99.90;;;;;;5099210;27;20386;-56
2021/12/05 12:20:40;;;;;;;4.20;0.85;;;9.30;99.90;;;;;;5098629;27;20394;-53
2021/12/05 12:23:07;;;;;;;4.35;1.00;;;8.20;99.90;;;;;;5092032;27;20509;-53
2021/12/05 12:25:38;;;;;;;5.53;0.80;;;8.50;99.90;;;;;;5119195;27;20406;-54
2021/12/05 12:28:06;;;;;;;6.00;1.60;;;8.50;99.90;;;;;;5108616;27;20396;-54
2021/12/05 12:30:35;;;;;;;4.57;1.33;;;8.50;99.90;;;;;;5103949;27;20498;-55
2021/12/05 12:33:20;;;;;;;5.10;1.20;;;8.40;99.90;;;;;;5097871;27;20427;-58
2021/12/05 12:35:48;;;;;;;4.10;0.80;;;8.40;99.90;;;;;;5094351;27;20401;-55
2021/12/05 12:38:16;;;;;;;5.47;0.93;;;8.30;99.90;;;;;;5099054;27;20855;-56
2021/12/05 12:40:46;;;;;;;4.85;1.40;;;8.30;99.90;;;;;;5101379;27;20927;-54
2021/12/05 12:43:49;;;;;;;4.80;1.10;;;8.30;99.90;;;;;;5110664;27;20402;-54
2021/12/05 12:46:17;;;;;;;4.78;0.90;;;8.10;99.90;;;;;;5091079;28;20398;-54
2021/12/05 12:48:43;;;;;;;5.50;1.20;;;8.40;99.90;;;;;;5108010;27;20883;-54
2021/12/05 12:51:35;;;;;;;5.50;2.20;;;8.60;99.90;;;;;;5102967;27;20401;-54
2021/12/05 12:54:08;;;;;;;4.93;0.80;;;8.80;99.90;;;;;;5103120;27;20449;-59
2021/12/05 12:56:34;;;;;;;6.70;2.43;;;9.10;99.90;;;;;;5100338;28;20418;-54
2021/12/05 12:59:07;;;;;;;14.03;6.07;;;9.10;99.90;;;;;;5111847;27;20376;-59
2021/12/05 13:10:24;;;;;;;10.10;4.25;;;8.50;99.90;;;;;;5101598;27;20768;-55
2021/12/05 13:13:00;;;;;;;6.30;2.53;;;8.40;99.90;;;;;;5098650;28;20435;-54
2021/12/05 13:15:33;;;;;;;6.35;2.00;;;8.30;99.90;;;;;;5105069;27;20422;-54
2021/12/05 13:18:10;;;;;;;7.20;2.30;;;7.70;99.90;;;;;;5097981;28;20865;-59
2021/12/05 13:20:41;;;;;;;6.00;2.10;;;7.30;99.90;;;;;;5095184;27;20448;-54
2021/12/05 13:23:34;;;;;;;5.20;1.80;;;7.00;99.90;;;;;;5092712;27;20406;-54
2021/12/05 13:26:26;;;;;;;6.03;1.98;;;6.90;99.90;;;;;;5097351;27;20927;-58
2021/12/05 13:28:55;;;;;;;6.20;1.85;;;6.90;99.90;;;;;;5070478;28;20439;-57
2021/12/05 13:31:32;;;;;;;6.93;2.65;;;6.80;99.90;;;;;;5090124;28;20528;-54
2021/12/05 13:34:42;;;;;;;6.27;2.40;;;6.60;99.90;;;;;;5100206;27;20464;-54
2021/12/05 13:37:08;;;;;;;6.90;2.28;;;6.60;99.90;;;;;;5040799;28;20444;-58
2021/12/05 13:39:47;;;;;;;6.68;2.33;;;6.60;99.90;;;;;;5040292;28;20531;-56
2021/12/05 13:42:25;;;;;;;6.70;2.35;;;6.90;99.90;;;;;;5075386;28;20424;-54
2021/12/05 13:45:06;;;;;;;6.15;2.30;;;6.90;99.90;;;;;;5098460;28;20405;-54
2021/12/05 13:47:47;;;;;;;6.43;1.65;;;7.00;99.90;;;;;;5091561;28;20402;-54
2021/12/05 13:50:21;;;;;;;5.60;1.90;;;7.10;99.90;;;;;;5094053;28;20763;-53
2021/12/05 13:53:01;;;;;;;5.70;1.60;;;7.10;99.90;;;;;;5094958;28;20400;-52
2021/12/05 13:55:53;;;;;;;4.70;1.30;;;7.30;99.90;;;;;;5094743;27;20674;-52
2021/12/05 13:58:34;;;;;;;4.50;1.15;;;7.30;99.90;;;;;;5090234;28;20402;-54
2021/12/05 14:01:06;;;;;;;4.20;1.10;;;7.30;99.90;;;;;;5092728;28;20396;-58
2021/12/05 14:03:54;;;;;;;8.98;3.03;;;7.20;99.90;;;;;;5093384;28;20402;-54
2021/12/05 14:06:31;;;;;;;5.97;2.47;;;7.00;99.90;;;;;;5093047;28;20584;-54
2021/12/05 14:09:10;;;;;;;3.90;0.70;;;6.80;99.90;;;;;;5099759;28;20463;-55
2021/12/05 14:11:43;;;;;;;3.50;0.60;;;6.70;99.90;;;;;;5092710;28;20925;-55
2021/12/05 14:14:09;;;;;;;9.90;3.10;;;6.60;99.90;;;;;;5092948;28;20452;-54
2021/12/05 14:16:40;;;;;;;3.50;0.60;;;6.60;99.90;;;;;;5096828;27;21469;-55
2021/12/05 14:19:14;;;;;;;6.03;0.70;;;6.60;99.90;;;;;;5098456;28;20425;-55
2021/12/05 14:21:42;;;;;;;3.80;0.60;;;6.60;99.90;;;;;;5102767;28;20411;-55
2021/12/05 14:24:09;;;;;;;4.85;1.20;;;6.60;99.90;;;;;;5098781;28;20412;-54
2021/12/05 14:26:39;;;;;;;5.00;0.80;;;6.50;99.90;;;;;;5104833;27;20415;-54
2021/12/05 14:29:04;;;;;;;7.00;1.30;;;6.70;99.90;;;;;;5101298;28;20415;-59
2021/12/05 14:31:44;;;;;;;6.00;1.40;;;6.70;99.90;;;;;;5101604;28;20396;-54
2021/12/05 14:34:11;;;;;;;6.03;2.30;;;6.90;99.90;;;;;;5098471;28;20893;-54
2021/12/05 14:37:05;;;;;;;7.75;3.42;;;7.00;99.90;;;;;;5099060;27;20413;-54
2021/12/05 14:39:42;;;;;;;6.25;2.40;;;7.20;99.90;;;;;;5097423;28;20433;-55
2021/12/05 14:42:15;;;;;;;7.80;2.33;;;7.20;99.90;;;;;;5100184;28;20547;-56
2021/12/05 14:44:42;;;;;;;5.85;2.00;;;7.20;99.90;;;;;;5098175;28;21028;-54
2021/12/05 14:47:10;;;;;;;6.10;1.80;;;7.30;99.90;;;;;;5093746;28;20398;-55
2021/12/05 14:49:41;;;;;;;5.27;1.67;;;7.20;99.90;;;;;;5105194;28;20771;-53
2021/12/05 14:52:14;;;;;;;6.13;1.90;;;7.30;99.90;;;;;;5101245;28;20392;-53
2021/12/05 14:54:41;;;;;;;6.80;1.80;;;7.40;99.90;;;;;;5096279;28;20886;-55
2021/12/05 14:57:13;;;;;;;6.40;2.20;;;7.30;99.90;;;;;;5117744;28;20392;-53
2021/12/05 14:59:40;;;;;;;9.65;4.50;;;7.10;99.90;;;;;;5099744;27;20758;-54
2021/12/05 15:02:07;;;;;;;6.90;2.20;;;6.90;99.90;;;;;;5094420;28;20423;-57
2021/12/05 15:04:53;;;;;;;10.07;4.50;;;6.80;99.90;;;;;;5095415;28;20402;-54
2021/12/05 15:07:24;;;;;;;36.03;15.40;;;6.90;99.90;;;;;;5099941;28;20740;-54
2021/12/05 15:09:53;;;;;;;14.38;6.38;;;6.80;99.90;;;;;;5101040;28;20398;-54
2021/12/05 15:12:28;;;;;;;7.45;3.10;;;6.80;99.90;;;;;;5092827;28;20404;-54
2021/12/05 15:14:58;;;;;;;6.28;2.42;;;6.80;99.90;;;;;;5106389;28;20428;-54
2021/12/05 15:17:27;;;;;;;7.07;2.97;;;6.80;99.90;;;;;;5098611;27;20405;-54
2021/12/05 15:20:07;;;;;;;6.35;2.47;;;6.70;99.90;;;;;;5099502;27;20487;-54
2021/12/05 15:22:33;;;;;;;7.00;2.50;;;6.70;99.90;;;;;;5098186;27;21046;-54
2021/12/05 15:25:01;;;;;;;8.68;3.63;;;6.70;99.90;;;;;;5104792;28;20860;-54
2021/12/05 15:27:30;;;;;;;8.83;4.00;;;6.80;99.90;;;;;;5099278;28;20403;-54
2021/12/05 15:30:06;;;;;;;8.80;4.10;;;6.80;99.90;;;;;;5102086;28;20402;-54
2021/12/05 15:32:33;;;;;;;21.70;7.50;;;6.00;99.90;;;;;;5101677;28;20895;-53
2021/12/05 15:35:24;;;;;;;11.90;4.90;;;6.60;99.90;;;;;;5100035;28;20470;-54
2021/12/05 15:37:59;;;;;;;9.05;4.97;;;6.50;99.90;;;;;;5101941;28;20400;-54
2021/12/05 15:40:27;;;;;;;10.80;4.60;;;6.40;99.90;;;;;;5097036;28;20417;-54
2021/12/05 15:43:00;;;;;;;8.95;3.83;;;6.30;99.90;;;;;;5099989;28;20408;-54
2021/12/05 15:45:26;;;;;;;7.40;3.30;;;4.90;99.90;;;;;;5098575;28;20407;-56
2021/12/05 15:47:51;;;;;;;7.40;3.60;;;6.10;99.90;;;;;;5102268;27;20496;-54
2021/12/05 15:50:17;;;;;;;10.77;5.70;;;6.00;99.90;;;;;;5095155;27;20761;-54
2021/12/05 15:52:47;;;;;;;13.17;6.80;;;6.00;99.90;;;;;;5104055;27;20755;-54
2021/12/05 15:55:21;;;;;;;12.73;6.95;;;5.90;99.90;;;;;;5105396;28;20416;-54
2021/12/05 15:57:52;;;;;;;12.73;6.40;;;5.80;99.90;;;;;;5107527;28;20406;-54
2021/12/05 16:00:26;;;;;;;10.90;5.65;;;5.70;99.90;;;;;;5101472;28;20807;-54
2021/12/05 16:03:04;;;;;;;11.05;6.60;;;5.70;99.90;;;;;;5101662;28;20421;-54
2021/12/05 16:05:31;;;;;;;13.20;6.77;;;5.70;99.90;;;;;;5096690;28;20447;-54
2021/12/05 16:08:04;;;;;;;16.23;6.22;;;5.80;99.90;;;;;;5101760;28;20922;-54
2021/12/05 16:10:32;;;;;;;10.90;5.90;;;5.50;99.90;;;;;;5101564;28;20387;-55
2021/12/05 16:13:06;;;;;;;11.37;5.10;;;5.50;99.90;;;;;;5102175;28;20412;-55
2021/12/05 16:15:32;;;;;;;10.13;5.43;;;5.40;99.90;;;;;;5098227;27;20425;-55
2021/12/05 16:18:01;;;;;;;9.38;5.20;;;5.50;99.90;;;;;;5104934;27;20800;-55
2021/12/05 16:20:49;;;;;;;12.73;6.27;;;5.50;99.90;;;;;;5100619;27;20418;-54
2021/12/05 16:23:27;;;;;;;15.73;8.05;;;5.30;99.90;;;;;;5095379;28;20423;-54
2021/12/05 16:26:03;;;;;;;20.70;9.85;;;5.20;99.90;;;;;;5106416;28;20762;-55
2021/12/05 16:28:38;;;;;;;31.98;15.48;;;5.20;99.90;;;;;;5098844;27;20903;-54
2021/12/05 16:31:12;;;;;;;33.50;16.98;;;5.10;99.90;;;;;;5105629;27;20408;-56
2021/12/05 16:33:38;;;;;;;26.13;12.57;;;5.10;99.90;;;;;;5090620;28;20421;-55
2021/12/05 16:36:06;;;;;;;14.25;6.75;;;5.10;99.90;;;;;;5101773;28;21622;-56
2021/12/05 16:38:36;;;;;;;10.60;5.90;;;4.90;99.90;;;;;;5088907;28;20475;-55
2021/12/05 16:41:04;;;;;;;11.68;6.70;;;4.80;99.90;;;;;;5088950;27;20469;-55
2021/12/05 16:43:33;;;;;;;12.60;6.25;;;4.80;99.90;;;;;;5087893;27;20443;-56
2021/12/05 16:46:20;;;;;;;16.67;11.60;;;4.90;99.90;;;;;;5091031;27;20854;-56
2021/12/05 16:48:46;;;;;;;13.60;8.53;;;4.80;99.90;;;;;;5092806;27;20444;-56
2021/12/05 16:51:12;;;;;;;7.97;4.28;;;4.80;99.90;;;;;;5094424;28;20399;-60
2021/12/05 16:53:43;;;;;;;7.00;3.60;;;4.70;99.90;;;;;;5093351;27;20410;-55
2021/12/05 16:56:11;;;;;;;10.40;3.60;;;4.60;99.90;;;;;;5090819;28;20401;-59
2021/12/05 16:58:38;;;;;;;9.00;4.20;;;4.90;99.90;;;;;;5088327;28;20456;-56
2021/12/05 17:01:07;;;;;;;5.70;3.15;;;4.40;99.90;;;;;;5090821;27;20390;-55
2021/12/05 17:03:33;;;;;;;7.63;2.90;;;4.50;99.90;;;;;;5089818;27;20404;-57
2021/12/05 17:06:05;;;;;;;6.87;3.17;;;4.30;99.90;;;;;;5090013;27;20486;-55
2021/12/05 17:08:34;;;;;;;7.47;3.10;;;4.20;99.90;;;;;;5090067;27;20451;-55
2021/12/05 17:11:05;;;;;;;9.68;2.83;;;4.30;99.90;;;;;;5088863;28;20406;-55
2021/12/05 17:13:34;;;;;;;6.47;3.30;;;4.20;99.90;;;;;;5091009;27;20426;-55
2021/12/05 17:16:04;;;;;;;7.07;3.40;;;4.90;99.90;;;;;;5089930;28;20418;-57
2021/12/05 17:18:42;;;;;;;15.18;8.43;;;4.20;99.90;;;;;;5086869;27;20407;-55
2021/12/05 17:21:34;;;;;;;35.08;17.80;;;4.20;99.90;;;;;;5090045;27;20420;-54
2021/12/05 17:24:06;;;;;;;14.65;8.20;;;5.00;99.90;;;;;;5087009;28;20402;-55
2021/12/05 17:26:37;;;;;;;9.60;5.00;;;4.20;99.90;;;;;;5091703;28;21038;-55
2021/12/05 17:29:12;;;;;;;8.30;5.30;;;4.20;99.90;;;;;;5087477;28;20863;-55
2021/12/05 17:31:43;;;;;;;9.65;6.10;;;4.20;99.90;;;;;;5088868;27;20429;-55
2021/12/05 17:34:13;;;;;;;10.10;5.50;;;4.20;99.90;;;;;;5089360;27;20409;-55
2021/12/05 17:36:44;;;;;;;20.08;11.95;;;4.20;99.90;;;;;;5087562;28;20436;-56
2021/12/05 17:39:16;;;;;;;23.55;14.70;;;4.00;99.90;;;;;;5092481;28;20441;-57
2021/12/05 17:41:44;;;;;;;24.10;16.98;;;4.00;99.90;;;;;;5089255;28;20402;-57
2021/12/05 17:44:12;;;;;;;22.83;17.15;;;4.00;99.90;;;;;;5089805;28;20413;-58
2021/12/05 17:46:38;;;;;;;23.23;17.52;;;4.00;99.90;;;;;;5093598;27;20398;-58
2021/12/05 17:49:08;;;;;;;13.65;9.70;;;4.10;99.90;;;;;;5089663;28;20413;-57
2021/12/05 17:51:37;;;;;;;55.97;22.08;;;4.10;99.90;;;;;;5090367;27;20497;-56
2021/12/05 17:54:12;;;;;;;19.65;9.10;;;4.20;99.90;;;;;;5091636;28;20886;-55
2021/12/05 17:56:42;;;;;;;7.85;4.00;;;4.20;99.90;;;;;;5093063;27;20412;-57
2021/12/05 17:59:24;;;;;;;10.85;5.10;;;4.30;99.90;;;;;;5104315;28;20388;-58
2021/12/05 18:04:40;;;;;;;6.70;3.50;;;4.40;99.90;;;;;;5093560;28;20986;-56
2021/12/05 18:07:05;;;;;;;8.73;3.90;;;4.50;99.90;;;;;;5093589;28;20535;-58
2021/12/05 18:09:31;;;;;;;8.47;5.90;;;4.50;99.90;;;;;;5092603;28;20484;-56
2021/12/05 18:11:57;;;;;;;7.75;4.03;;;4.50;99.90;;;;;;5094613;28;20858;-56
2021/12/05 18:14:23;;;;;;;9.80;5.93;;;4.50;99.90;;;;;;5098134;28;20428;-57
2021/12/05 18:16:49;;;;;;;7.95;4.40;;;4.40;99.90;;;;;;5097450;28;20894;-58
2021/12/05 18:19:18;;;;;;;9.52;4.10;;;4.40;99.90;;;;;;5095484;28;20428;-61
2021/12/05 18:21:44;;;;;;;6.40;3.40;;;4.30;99.90;;;;;;5104392;28;20452;-55
2021/12/05 18:24:15;;;;;;;7.63;3.70;;;4.50;99.90;;;;;;5098948;28;20730;-56
2021/12/05 18:26:42;;;;;;;8.35;3.90;;;4.10;99.90;;;;;;5091006;28;20397;-56
2021/12/05 18:29:10;;;;;;;7.47;4.00;;;5.40;99.90;;;;;;5090087;28;20381;-56
2021/12/05 18:31:38;;;;;;;7.05;3.85;;;4.00;99.90;;;;;;5100855;28;21199;-56
2021/12/05 18:34:18;;;;;;;7.38;3.85;;;4.10;99.90;;;;;;5097235;28;20418;-57
2021/12/05 18:36:45;;;;;;;8.57;4.13;;;4.10;99.90;;;;;;5103386;28;20417;-56
2021/12/05 18:39:18;;;;;;;9.60;4.00;;;4.20;99.90;;;;;;5097180;28;20394;-56
2021/12/05 18:41:43;;;;;;;9.85;5.47;;;4.20;99.90;;;;;;5092556;28;20374;-57
2021/12/05 18:44:15;;;;;;;21.57;11.33;;;4.20;99.90;;;;;;5094194;28;20754;-57